createdAt,value
2022-09-13T00:02:23.916Z,18.12
2022-09-13T00:04:51.131Z,18.10
2022-09-13T00:07:18.355Z,18.06
2022-09-13T00:09:47.036Z,18.04
2022-09-13T00:12:14.157Z,18.03
2022-09-13T00:14:41.616Z,18.00
2022-09-13T00:17:08.800Z,17.97
2022-09-13T00:19:36.091Z,17.91
2022-09-13T00:22:03.331Z,17.91
2022-09-13T00:24:30.466Z,17.91
2022-09-13T00:26:59.064Z,17.90
2022-09-13T00:29:26.370Z,17.88
2022-09-13T00:31:53.766Z,17.83
2022-09-13T00:34:21.182Z,17.82
2022-09-13T00:36:48.393Z,17.79
2022-09-13T00:39:15.492Z,17.77
2022-09-13T00:41:42.728Z,17.73
2022-09-13T00:44:50.553Z,17.72
2022-09-13T00:47:21.508Z,17.69
2022-09-13T00:49:51.936Z,17.66
2022-09-13T00:52:24.184Z,17.62
2022-09-13T00:54:58.944Z,17.57
2022-09-13T00:57:27.214Z,17.53
2022-09-13T01:00:01.128Z,17.47
2022-09-13T01:02:28.970Z,17.42
2022-09-13T01:04:56.600Z,17.38
2022-09-13T01:07:24.011Z,17.34
2022-09-13T01:09:53.362Z,17.32
2022-09-13T01:12:31.624Z,17.25
2022-09-13T01:15:02.942Z,17.23
2022-09-13T01:17:31.839Z,17.17
2022-09-13T01:20:00.095Z,17.12
2022-09-13T01:23:25.840Z,17.07
2022-09-13T01:26:23.092Z,16.99
2022-09-13T01:29:27.351Z,16.92
2022-09-13T01:32:06.515Z,16.89
2022-09-13T01:34:43.777Z,16.84
2022-09-13T01:37:25.825Z,16.80
2022-09-13T01:40:05.536Z,16.74
2022-09-13T01:42:48.673Z,16.71
2022-09-13T01:45:26.008Z,16.67
2022-09-13T01:47:58.966Z,16.64
2022-09-13T01:50:39.900Z,16.61
2022-09-13T01:53:18.964Z,16.57
2022-09-13T01:55:53.121Z,16.52
2022-09-13T01:58:27.370Z,16.52
2022-09-13T02:01:00.639Z,16.53
2022-09-13T02:03:34.562Z,16.51
2022-09-13T02:06:06.186Z,16.49
2022-09-13T02:08:40.534Z,16.45
2022-09-13T02:11:10.929Z,16.43
2022-09-13T02:13:41.638Z,16.41
2022-09-13T02:16:15.550Z,16.38
2022-09-13T02:18:49.011Z,16.35
2022-09-13T02:21:21.570Z,16.31
2022-09-13T02:23:51.999Z,16.31
2022-09-13T02:26:21.698Z,16.33
2022-09-13T02:28:52.457Z,16.33
2022-09-13T02:31:26.381Z,16.32
2022-09-13T02:33:59.428Z,16.31
2022-09-13T02:36:30.677Z,16.27
2022-09-13T02:39:01.186Z,16.25
2022-09-13T02:41:36.277Z,16.21
2022-09-13T02:44:06.575Z,16.19
2022-09-13T02:46:45.343Z,16.12
2022-09-13T02:49:23.606Z,16.12
2022-09-13T02:51:55.817Z,16.12
2022-09-13T02:54:30.728Z,16.15
2022-09-13T02:57:02.295Z,16.10
2022-09-13T02:59:29.589Z,16.08
2022-09-13T03:02:00.343Z,16.05
2022-09-13T03:04:29.275Z,16.03
2022-09-13T03:06:56.427Z,16.03
2022-09-13T03:09:24.099Z,16.02
2022-09-13T03:12:17.837Z,15.99
2022-09-13T03:14:52.774Z,15.98
2022-09-13T03:17:35.263Z,15.95
2022-09-13T03:20:10.315Z,15.90
2022-09-13T03:22:57.817Z,15.92
2022-09-13T03:25:35.612Z,15.92
2022-09-13T03:28:14.585Z,15.91
2022-09-13T03:30:51.026Z,15.87
2022-09-13T03:33:28.563Z,15.83
2022-09-13T03:36:05.142Z,15.80
2022-09-13T03:38:37.373Z,15.77
2022-09-13T03:41:08.249Z,15.76
2022-09-13T03:43:40.373Z,15.74
2022-09-13T03:46:12.449Z,15.72
2022-09-13T03:48:42.785Z,15.71
2022-09-13T03:51:11.697Z,15.72
2022-09-13T03:53:43.361Z,15.71
2022-09-13T03:56:15.805Z,15.70
2022-09-13T03:58:43.944Z,15.70
2022-09-13T04:01:11.118Z,15.69
2022-09-13T04:03:38.889Z,15.69
2022-09-13T04:06:06.998Z,15.72
2022-09-13T04:08:35.707Z,15.73
2022-09-13T04:11:02.852Z,15.74
2022-09-13T04:13:29.944Z,15.76
2022-09-13T04:16:02.417Z,15.75
2022-09-13T04:18:30.074Z,15.80
2022-09-13T04:20:58.636Z,15.84
2022-09-13T04:23:27.340Z,15.81
2022-09-13T04:26:01.480Z,15.77
2022-09-13T04:28:28.784Z,15.74
2022-09-13T04:30:55.863Z,15.73
2022-09-13T04:33:23.365Z,15.72
2022-09-13T04:35:54.664Z,15.69
2022-09-13T04:38:21.814Z,15.64
2022-09-13T04:40:53.593Z,15.65
2022-09-13T04:43:22.437Z,15.70
2022-09-13T04:45:50.242Z,15.85
2022-09-13T04:48:17.627Z,15.94
2022-09-13T04:50:44.973Z,15.95
2022-09-13T04:53:12.540Z,16.08
2022-09-13T04:55:39.694Z,16.22
2022-09-13T04:58:06.846Z,16.41
2022-09-13T05:00:36.070Z,16.49
2022-09-13T05:03:03.460Z,16.64
2022-09-13T05:05:32.356Z,16.84
2022-09-13T05:07:59.536Z,17.03
2022-09-13T05:10:26.632Z,17.14
2022-09-13T05:12:53.766Z,17.25
2022-09-13T05:15:20.962Z,17.42
2022-09-13T05:17:49.502Z,17.67
2022-09-13T05:20:16.668Z,18.07
2022-09-13T05:22:43.756Z,18.45
2022-09-13T05:25:10.889Z,18.77
2022-09-13T05:27:38.206Z,18.95
2022-09-13T05:30:06.547Z,19.05
2022-09-13T05:32:33.671Z,19.36
2022-09-13T05:35:02.172Z,19.65
2022-09-13T05:37:29.489Z,19.78
2022-09-13T05:40:12.755Z,19.97
2022-09-13T05:42:40.457Z,20.28
2022-09-13T05:45:09.423Z,20.42
2022-09-13T05:47:36.628Z,20.59
2022-09-13T05:50:11.011Z,20.90
2022-09-13T05:52:41.004Z,21.26
2022-09-13T05:55:09.792Z,21.52
2022-09-13T05:57:37.725Z,21.83
2022-09-13T06:00:05.593Z,22.11
2022-09-13T06:02:39.659Z,22.19
2022-09-13T06:05:10.254Z,22.17
2022-09-13T06:07:40.421Z,22.25
2022-09-13T06:10:08.554Z,22.30
2022-09-13T06:12:35.732Z,22.37
2022-09-13T06:15:03.176Z,22.61
2022-09-13T06:17:30.322Z,22.75
2022-09-13T06:19:57.425Z,22.73
2022-09-13T06:22:25.953Z,22.77
2022-09-13T06:24:53.096Z,22.73
2022-09-13T06:27:20.307Z,22.84
2022-09-13T06:29:47.433Z,22.89
2022-09-13T06:32:14.524Z,22.90
2022-09-13T06:34:41.690Z,22.94
2022-09-13T06:37:08.792Z,23.11
2022-09-13T06:39:37.267Z,23.11
2022-09-13T06:42:04.864Z,23.28
2022-09-13T06:44:39.789Z,23.22
2022-09-13T06:47:07.089Z,23.26
2022-09-13T06:49:34.226Z,23.26
2022-09-13T06:52:01.478Z,23.45
2022-09-13T06:54:28.541Z,23.66
2022-09-13T06:56:57.085Z,23.82
2022-09-13T06:59:24.478Z,24.17
2022-09-13T07:01:51.899Z,24.38
2022-09-13T07:04:19.562Z,24.59
2022-09-13T07:06:48.455Z,24.63
2022-09-13T07:09:18.233Z,24.78
2022-09-13T07:11:47.096Z,25.00
2022-09-13T07:14:17.471Z,25.13
2022-09-13T07:16:46.158Z,25.22
2022-09-13T07:19:15.404Z,25.22
2022-09-13T07:21:42.727Z,25.34
2022-09-13T07:24:10.301Z,25.34
2022-09-13T07:26:37.781Z,25.25
2022-09-13T07:29:06.749Z,25.22
2022-09-13T07:31:37.222Z,25.32
2022-09-13T07:34:06.802Z,25.62
2022-09-13T07:36:36.018Z,25.86
2022-09-13T07:39:04.685Z,26.11
2022-09-13T07:41:33.422Z,26.41
2022-09-13T07:44:01.891Z,26.49
2022-09-13T07:46:33.622Z,26.39
2022-09-13T07:49:02.513Z,26.55
2022-09-13T07:51:31.851Z,26.71
2022-09-13T07:54:01.625Z,26.84
2022-09-13T07:56:30.844Z,26.92
2022-09-13T07:59:00.969Z,27.12
2022-09-13T08:01:30.159Z,27.33
2022-09-13T08:03:59.245Z,27.31
2022-09-13T08:06:29.598Z,27.38
2022-09-13T08:08:56.945Z,27.68
2022-09-13T08:11:26.110Z,27.81
2022-09-13T08:13:53.381Z,27.55
2022-09-13T08:16:22.548Z,27.77
2022-09-13T08:18:51.425Z,27.95
2022-09-13T08:21:19.274Z,28.20
2022-09-13T08:23:48.030Z,28.22
2022-09-13T08:26:15.222Z,27.95
2022-09-13T08:28:43.015Z,27.86
2022-09-13T08:31:11.869Z,27.64
2022-09-13T08:33:43.020Z,27.38
2022-09-13T08:36:12.847Z,27.41
2022-09-13T08:38:39.885Z,27.36
2022-09-13T08:41:27.786Z,27.25
2022-09-13T08:44:01.062Z,27.29
2022-09-13T08:46:32.645Z,27.41
2022-09-13T08:49:05.184Z,27.66
2022-09-13T08:51:36.597Z,27.71
2022-09-13T08:54:04.690Z,27.60
2022-09-13T08:56:44.738Z,27.62
2022-09-13T08:59:26.817Z,27.87
2022-09-13T09:02:04.457Z,28.01
2022-09-13T09:04:41.253Z,28.17
2022-09-13T09:07:13.197Z,28.12
2022-09-13T09:09:45.141Z,28.29
2022-09-13T09:12:20.353Z,28.46
2022-09-13T09:14:56.797Z,28.84
2022-09-13T09:17:28.937Z,28.92
2022-09-13T09:20:07.644Z,28.90
2022-09-13T09:22:36.303Z,28.60
2022-09-13T09:25:04.401Z,28.89
2022-09-13T09:27:33.838Z,29.37
2022-09-13T09:30:01.849Z,29.15
2022-09-13T09:32:47.573Z,28.61
2022-09-13T09:35:27.626Z,28.24
2022-09-13T09:38:14.875Z,28.55
2022-09-13T09:40:42.035Z,28.45
2022-09-13T09:43:17.862Z,28.05
2022-09-13T09:45:46.874Z,27.95
2022-09-13T09:48:19.866Z,28.39
2022-09-13T09:50:51.970Z,28.59
2022-09-13T09:53:28.988Z,28.78
2022-09-13T09:56:00.636Z,29.16
2022-09-13T09:58:40.434Z,29.40
2022-09-13T10:01:19.499Z,29.21
2022-09-13T10:03:54.261Z,28.61
2022-09-13T10:06:22.834Z,28.79
2022-09-13T10:09:00.005Z,29.22
2022-09-13T10:11:46.351Z,29.11
2022-09-13T10:14:36.810Z,28.61
2022-09-13T10:17:06.490Z,28.00
2022-09-13T10:19:33.872Z,27.82
2022-09-13T10:22:05.926Z,28.04
2022-09-13T10:24:33.300Z,28.27
2022-09-13T10:27:00.595Z,28.67
2022-09-13T10:29:30.700Z,28.71
2022-09-13T10:31:58.985Z,28.81
2022-09-13T10:34:30.022Z,29.10
2022-09-13T10:37:00.104Z,29.15
2022-09-13T10:39:29.794Z,29.05
2022-09-13T10:41:59.444Z,28.82
2022-09-13T10:44:33.209Z,28.93
2022-09-13T10:47:03.276Z,28.84
2022-09-13T10:49:44.317Z,28.39
2022-09-13T10:52:32.875Z,28.03
2022-09-13T10:55:25.567Z,27.64
2022-09-13T10:57:54.193Z,27.42
2022-09-13T11:00:31.172Z,27.82
2022-09-13T11:03:22.859Z,28.13
2022-09-13T11:05:55.776Z,27.82
2022-09-13T11:08:36.419Z,27.57
2022-09-13T11:11:14.592Z,27.31
2022-09-13T11:13:53.990Z,27.56
2022-09-13T11:16:35.374Z,27.69
2022-09-13T11:19:34.311Z,28.19
2022-09-13T11:22:16.801Z,28.72
2022-09-13T11:24:53.623Z,28.81
2022-09-13T11:27:29.348Z,29.01
2022-09-13T11:30:08.644Z,29.05
2022-09-13T11:32:55.572Z,29.14
2022-09-13T11:35:38.286Z,28.72
2022-09-13T11:38:22.545Z,28.77
2022-09-13T11:40:58.465Z,29.07
2022-09-13T11:43:47.441Z,29.00
2022-09-13T11:46:23.646Z,28.91
2022-09-13T11:49:26.246Z,28.62
2022-09-13T11:52:05.391Z,28.25
2022-09-13T11:54:51.041Z,28.56
2022-09-13T11:57:25.044Z,28.94
2022-09-13T11:59:57.701Z,29.25
2022-09-13T12:02:29.764Z,29.44
2022-09-13T12:05:20.911Z,29.27
2022-09-13T12:07:52.390Z,29.46
2022-09-13T12:10:25.248Z,29.39
2022-09-13T12:12:54.471Z,29.51
2022-09-13T12:15:33.057Z,29.79
2022-09-13T12:18:05.974Z,30.13
2022-09-13T12:20:37.935Z,30.30
2022-09-13T12:23:11.665Z,30.37
2022-09-13T12:25:46.350Z,30.36
2022-09-13T12:28:19.452Z,30.36
2022-09-13T12:30:52.517Z,30.43
2022-09-13T12:33:19.949Z,30.47
2022-09-13T12:36:01.499Z,30.11
2022-09-13T12:38:55.966Z,29.85
2022-09-13T12:41:37.116Z,29.56
2022-09-13T12:44:25.514Z,29.48
2022-09-13T12:47:27.621Z,29.58
2022-09-13T12:53:11.699Z,29.53
2022-09-13T12:56:00.189Z,29.55
2022-09-13T12:58:47.377Z,29.55
2022-09-13T13:01:17.808Z,29.55
2022-09-13T13:03:53.141Z,29.62
2022-09-13T13:06:29.225Z,29.53
2022-09-13T13:09:00.523Z,29.59
2022-09-13T13:11:42.020Z,29.56
2022-09-13T13:14:28.196Z,29.62
2022-09-13T13:16:55.473Z,29.55
2022-09-13T13:19:31.837Z,29.54
2022-09-13T13:22:32.330Z,29.73
2022-09-13T13:25:32.253Z,29.77
2022-09-13T13:27:59.670Z,29.32
2022-09-13T13:30:55.164Z,29.15
2022-09-13T13:33:26.668Z,29.21
2022-09-13T13:35:54.189Z,29.28
2022-09-13T13:38:52.117Z,29.12
2022-09-13T13:41:55.165Z,28.89
2022-09-13T13:45:10.483Z,28.97
2022-09-13T13:48:18.862Z,29.07
2022-09-13T13:51:19.399Z,29.24
2022-09-13T13:53:51.056Z,29.21
2022-09-13T13:56:24.759Z,29.36
2022-09-13T13:58:57.074Z,29.40
2022-09-13T14:01:27.255Z,29.25
2022-09-13T14:04:35.789Z,29.11
2022-09-13T14:07:19.612Z,29.11
2022-09-13T14:09:56.513Z,28.73
2022-09-13T14:12:34.569Z,28.35
2022-09-13T14:15:19.679Z,28.37
2022-09-13T14:18:10.339Z,28.49
2022-09-13T14:20:37.678Z,28.59
2022-09-13T14:23:18.590Z,28.65
2022-09-13T14:25:46.530Z,28.70
2022-09-13T14:28:23.889Z,28.80
2022-09-13T14:30:56.481Z,28.58
2022-09-13T14:33:30.994Z,28.36
2022-09-13T14:36:01.497Z,28.26
2022-09-13T14:38:35.671Z,28.20
2022-09-13T14:41:14.453Z,28.06
2022-09-13T14:43:42.559Z,28.01
2022-09-13T14:46:15.492Z,27.94
2022-09-13T14:48:47.614Z,27.88
2022-09-13T14:51:20.462Z,27.93
2022-09-13T14:53:52.092Z,27.92
2022-09-13T14:56:32.114Z,27.87
2022-09-13T14:59:01.306Z,27.86
2022-09-13T15:01:32.252Z,27.86
2022-09-13T15:04:02.623Z,27.77
2022-09-13T15:06:33.394Z,27.69
2022-09-13T15:09:13.526Z,27.61
2022-09-13T15:11:55.391Z,27.51
2022-09-13T15:14:28.618Z,27.33
2022-09-13T15:17:03.874Z,27.17
2022-09-13T15:19:37.715Z,27.04
2022-09-13T15:22:21.221Z,26.89
2022-09-13T15:24:51.311Z,26.73
2022-09-13T15:27:26.128Z,26.60
2022-09-13T15:29:55.278Z,26.48
2022-09-13T15:32:30.894Z,26.30
2022-09-13T15:34:59.725Z,26.17
2022-09-13T15:37:36.194Z,26.06
2022-09-13T15:40:19.138Z,25.96
2022-09-13T15:42:52.237Z,25.83
2022-09-13T15:45:21.125Z,25.70
2022-09-13T15:47:51.198Z,25.60
2022-09-13T15:50:31.020Z,25.47
2022-09-13T15:52:58.956Z,25.36
2022-09-13T15:55:27.291Z,25.22
2022-09-13T15:57:55.127Z,25.17
2022-09-13T16:00:24.563Z,25.12
2022-09-13T16:02:53.298Z,25.05
2022-09-13T16:05:20.848Z,25.02
2022-09-13T16:07:48.065Z,24.94
2022-09-13T16:10:17.942Z,24.86
2022-09-13T16:12:45.623Z,24.76
2022-09-13T16:15:13.408Z,24.73
2022-09-13T16:17:41.626Z,24.61
2022-09-13T16:20:13.830Z,24.46
2022-09-13T16:22:41.007Z,24.33
2022-09-13T16:25:09.870Z,24.22
2022-09-13T16:27:37.315Z,24.13
2022-09-13T16:30:05.255Z,24.01
2022-09-13T16:32:32.534Z,23.88
2022-09-13T16:34:59.691Z,23.74
2022-09-13T16:37:28.210Z,23.66
2022-09-13T16:39:57.007Z,23.56
2022-09-13T16:42:24.407Z,23.43
2022-09-13T16:44:51.507Z,23.30
2022-09-13T16:47:18.842Z,23.15
2022-09-13T16:49:45.907Z,23.02
2022-09-13T16:52:13.057Z,22.88
2022-09-13T16:54:42.488Z,22.75
2022-09-13T16:57:10.531Z,22.62
2022-09-13T16:59:37.645Z,22.51
2022-09-13T17:02:05.024Z,22.45
2022-09-13T17:04:32.332Z,22.37
2022-09-13T17:07:01.968Z,22.29
2022-09-13T17:09:30.832Z,22.21
2022-09-13T17:11:59.550Z,22.16
2022-09-13T17:14:27.294Z,22.08
2022-09-13T17:16:56.940Z,22.02
2022-09-13T17:19:26.622Z,21.96
2022-09-13T17:21:57.433Z,21.88
2022-09-13T17:24:25.671Z,21.77
2022-09-13T17:26:53.101Z,21.66
2022-09-13T17:29:21.660Z,21.57
2022-09-13T17:31:48.930Z,21.45
2022-09-13T17:34:16.320Z,21.36
2022-09-13T17:36:44.120Z,21.28
2022-09-13T17:39:12.960Z,21.22
2022-09-13T17:41:40.504Z,21.15
2022-09-13T17:44:07.666Z,21.05
2022-09-13T17:46:36.522Z,20.96
2022-09-13T17:49:04.809Z,20.92
2022-09-13T17:51:33.431Z,20.90
2022-09-13T17:54:02.606Z,20.84
2022-09-13T17:56:31.367Z,20.79
2022-09-13T17:59:09.642Z,20.68
2022-09-13T18:01:40.867Z,20.62
2022-09-13T18:04:09.157Z,20.58
2022-09-13T18:06:36.735Z,20.50
2022-09-13T18:09:04.128Z,20.43
2022-09-13T18:11:31.252Z,20.40
2022-09-13T18:13:58.572Z,20.35
2022-09-13T18:16:28.647Z,20.29
2022-09-13T18:18:59.199Z,20.24
2022-09-13T18:21:27.237Z,20.18
2022-09-13T18:23:58.101Z,20.15
2022-09-13T18:26:27.099Z,20.05
2022-09-13T18:28:56.109Z,20.01
2022-09-13T18:31:24.464Z,19.95
2022-09-13T18:33:55.746Z,19.89
2022-09-13T18:36:25.200Z,19.86
2022-09-13T18:38:53.336Z,19.83
2022-09-13T18:41:21.974Z,19.78
2022-09-13T18:43:55.126Z,19.71
2022-09-13T18:46:25.240Z,19.65
2022-09-13T18:48:54.199Z,19.59
2022-09-13T18:51:24.024Z,19.53
2022-09-13T18:53:52.722Z,19.48
2022-09-13T18:56:23.422Z,19.40
2022-09-13T18:58:52.950Z,19.35
2022-09-13T19:01:22.461Z,19.27
2022-09-13T19:03:51.319Z,19.18
2022-09-13T19:06:20.489Z,19.09
2022-09-13T19:08:49.328Z,19.03
2022-09-13T19:11:42.227Z,18.95
2022-09-13T19:14:06.377Z,18.91
2022-09-13T19:16:34.021Z,18.86
2022-09-13T19:19:01.294Z,18.83
2022-09-13T19:21:29.688Z,18.73
2022-09-13T19:24:00.347Z,18.60
2022-09-13T19:26:32.226Z,18.49
2022-09-13T19:29:06.482Z,18.44
2022-09-13T19:31:35.152Z,18.34
2022-09-13T19:34:02.561Z,18.33
2022-09-13T19:36:34.286Z,18.33
2022-09-13T19:39:02.262Z,18.33
2022-09-13T19:41:31.354Z,18.30
2022-09-13T19:44:00.627Z,18.23
2022-09-13T19:46:31.693Z,18.16
2022-09-13T19:49:00.834Z,18.03
2022-09-13T19:51:30.233Z,17.98
2022-09-13T19:53:59.223Z,17.95
2022-09-13T19:56:27.832Z,17.92
2022-09-13T19:58:56.508Z,17.80
2022-09-13T20:01:26.975Z,17.79
2022-09-13T20:03:56.052Z,17.80
2022-09-13T20:06:24.642Z,17.82
2022-09-13T20:08:52.996Z,17.83
2022-09-13T20:11:20.958Z,17.82
2022-09-13T20:13:48.941Z,17.84
2022-09-13T20:16:19.713Z,17.84
2022-09-13T20:18:47.404Z,17.82
2022-09-13T20:21:14.895Z,17.75
2022-09-13T20:23:42.811Z,17.69
2022-09-13T20:26:15.002Z,17.61
2022-09-13T20:28:42.371Z,17.58
2022-09-13T20:31:10.394Z,17.55
2022-09-13T20:33:40.074Z,17.49
2022-09-13T20:36:11.854Z,17.38
2022-09-13T20:38:39.721Z,17.27
2022-09-13T20:41:09.139Z,17.15
2022-09-13T20:43:37.476Z,16.96
2022-09-13T20:46:05.608Z,16.88
2022-09-13T20:48:33.418Z,16.77
2022-09-13T20:51:05.379Z,16.81
2022-09-13T20:53:33.317Z,16.87
2022-09-13T20:56:03.270Z,16.90
2022-09-13T20:58:30.518Z,16.94
2022-09-13T21:01:02.987Z,16.96
2022-09-13T21:03:30.393Z,16.90
2022-09-13T21:06:00.153Z,16.82
2022-09-13T21:08:43.774Z,16.69
2022-09-13T21:11:13.849Z,16.68
2022-09-13T21:13:42.537Z,16.62
2022-09-13T21:16:11.912Z,16.59
2022-09-13T21:18:39.591Z,16.61
2022-09-13T21:21:07.819Z,16.61
2022-09-13T21:23:40.177Z,16.61
2022-09-13T21:26:10.203Z,16.62
2022-09-13T21:28:38.197Z,16.63
2022-09-13T21:31:08.205Z,16.64
2022-09-13T21:33:36.019Z,16.62
2022-09-13T21:36:05.072Z,16.57
2022-09-13T21:38:34.493Z,16.52
2022-09-13T21:41:04.717Z,16.49
2022-09-13T21:43:32.930Z,16.43
2022-09-13T21:46:02.494Z,16.39
2022-09-13T21:48:30.413Z,16.34
2022-09-13T21:51:06.142Z,16.30
2022-09-13T21:53:35.583Z,16.28
2022-09-13T21:56:08.979Z,16.18
2022-09-13T21:58:37.249Z,16.12
2022-09-13T22:01:06.277Z,16.11
2022-09-13T22:03:52.055Z,16.08
2022-09-13T22:06:23.315Z,15.99
2022-09-13T22:09:03.491Z,15.88
2022-09-13T22:11:36.335Z,15.92
2022-09-13T22:14:04.662Z,15.99
2022-09-13T22:16:33.955Z,16.00
2022-09-13T22:19:17.153Z,15.99
2022-09-13T22:21:54.470Z,15.99
2022-09-13T22:24:23.778Z,16.00
2022-09-13T22:26:58.294Z,15.97
2022-09-13T22:29:29.107Z,15.93
2022-09-13T22:31:57.875Z,15.93
2022-09-13T22:34:29.380Z,15.91
2022-09-13T22:37:00.964Z,15.90
2022-09-13T22:39:28.203Z,15.92
2022-09-13T22:41:56.767Z,15.93
2022-09-13T22:44:23.945Z,15.91
2022-09-13T22:46:51.119Z,15.90
2022-09-13T22:49:19.843Z,15.89
2022-09-13T22:51:48.117Z,15.88
2022-09-13T22:54:16.362Z,15.87
2022-09-13T22:56:43.664Z,15.85
2022-09-13T22:59:16.306Z,15.80
2022-09-13T23:01:44.525Z,15.75
2022-09-13T23:04:12.458Z,15.71
2022-09-13T23:06:40.305Z,15.67
2022-09-13T23:09:08.344Z,15.62
2022-09-13T23:11:37.219Z,15.54
2022-09-13T23:14:06.070Z,15.51
2022-09-13T23:16:38.047Z,15.48
2022-09-13T23:19:05.570Z,15.46
2022-09-13T23:21:35.196Z,15.45
2022-09-13T23:24:04.298Z,15.42
2022-09-13T23:26:31.731Z,15.41
2022-09-13T23:29:00.856Z,15.36
2022-09-13T23:31:29.630Z,15.32
2022-09-13T23:33:59.789Z,15.30
2022-09-13T23:36:29.122Z,15.28
2022-09-13T23:38:58.380Z,15.28
2022-09-13T23:41:26.374Z,15.27
2022-09-13T23:43:54.190Z,15.25
2022-09-13T23:46:21.627Z,15.25
2022-09-13T23:48:48.961Z,15.25
2022-09-13T23:51:19.098Z,15.28
2022-09-13T23:53:47.320Z,15.30
2022-09-13T23:56:16.729Z,15.31
2022-09-13T23:58:44.177Z,15.31
